createdAt,value
2022-11-17T00:00:58.236Z,0.30
2022-11-17T00:03:06.761Z,0.30
2022-11-17T00:05:15.670Z,0.30
2022-11-17T00:07:24.305Z,0.27
2022-11-17T00:09:32.792Z,0.40
2022-11-17T00:11:55.091Z,0.40
2022-11-17T00:14:22.460Z,0.40
2022-11-17T00:16:30.917Z,0.50
2022-11-17T00:18:56.794Z,0.30
2022-11-17T00:21:21.516Z,0.30
2022-11-17T00:23:47.174Z,0.30
2022-11-17T00:25:56.161Z,0.30
2022-11-17T00:28:04.831Z,0.33
2022-11-17T00:30:35.360Z,0.27
2022-11-17T00:33:01.633Z,0.20
2022-11-17T00:35:10.319Z,0.20
2022-11-17T00:37:18.770Z,0.20
2022-11-17T00:39:27.426Z,0.33
2022-11-17T00:41:35.907Z,0.27
2022-11-17T00:43:44.442Z,0.20
2022-11-17T00:45:54.368Z,0.30
2022-11-17T00:48:02.837Z,0.40
2022-11-17T00:50:11.810Z,0.30
2022-11-17T00:52:20.471Z,0.30
2022-11-17T00:54:29.098Z,0.30
2022-11-17T00:56:37.587Z,0.30
2022-11-17T00:58:46.167Z,0.40
2022-11-17T01:00:56.314Z,0.30
2022-11-17T01:03:05.037Z,0.30
2022-11-17T01:05:13.576Z,0.30
2022-11-17T01:07:22.947Z,0.30
2022-11-17T01:09:31.649Z,0.30
2022-11-17T01:11:41.603Z,0.37
2022-11-17T01:13:50.072Z,0.23
2022-11-17T01:16:03.144Z,0.40
2022-11-17T01:18:12.442Z,0.30
2022-11-17T01:20:21.082Z,0.40
2022-11-17T01:22:29.540Z,0.30
2022-11-17T01:24:38.320Z,0.30
2022-11-17T01:26:47.579Z,0.40
2022-11-17T01:28:56.670Z,0.30
2022-11-17T01:31:07.977Z,0.40
2022-11-17T01:33:16.687Z,0.40
2022-11-17T01:35:25.143Z,0.50
2022-11-17T01:37:33.900Z,0.30
2022-11-17T01:39:42.481Z,0.40
2022-11-17T01:41:50.963Z,0.40
2022-11-17T01:44:00.862Z,0.40
2022-11-17T01:46:14.269Z,0.50
2022-11-17T01:48:22.758Z,0.60
2022-11-17T01:50:32.729Z,0.50
2022-11-17T01:52:41.639Z,0.47
2022-11-17T01:54:50.622Z,0.60
2022-11-17T01:57:00.629Z,0.50
2022-11-17T01:59:11.179Z,0.40
2022-11-17T02:01:21.044Z,0.50
2022-11-17T02:03:30.054Z,0.50
2022-11-17T02:05:42.350Z,0.50
2022-11-17T02:07:51.698Z,0.50
2022-11-17T02:10:01.235Z,0.60
2022-11-17T02:12:10.700Z,0.60
2022-11-17T02:14:19.221Z,0.43
2022-11-17T02:16:29.074Z,0.40
2022-11-17T02:18:37.593Z,0.53
2022-11-17T02:20:53.703Z,0.60
2022-11-17T02:23:17.185Z,0.60
2022-11-17T02:25:32.251Z,0.70
2022-11-17T02:27:47.001Z,0.63
2022-11-17T02:29:57.950Z,0.50
2022-11-17T02:32:07.849Z,0.50
2022-11-17T02:34:21.081Z,0.70
2022-11-17T02:36:33.188Z,0.60
2022-11-17T02:38:44.380Z,0.60
2022-11-17T02:40:55.058Z,0.60
2022-11-17T02:43:25.259Z,0.70
2022-11-17T02:45:38.227Z,0.63
2022-11-17T02:47:48.604Z,0.80
2022-11-17T02:49:59.220Z,0.67
2022-11-17T02:52:08.408Z,1.00
2022-11-17T02:54:17.865Z,1.10
2022-11-17T02:56:26.442Z,1.20
2022-11-17T02:58:36.325Z,1.20
2022-11-17T03:00:50.238Z,1.43
2022-11-17T03:03:07.744Z,1.03
2022-11-17T03:05:18.302Z,0.97
2022-11-17T03:07:33.520Z,0.90
2022-11-17T03:09:48.708Z,0.90
2022-11-17T03:12:01.492Z,0.87
2022-11-17T03:14:15.243Z,0.80
2022-11-17T03:16:27.445Z,1.10
2022-11-17T03:18:38.958Z,0.80
2022-11-17T03:20:51.563Z,1.00
2022-11-17T03:23:02.130Z,0.77
2022-11-17T03:25:13.819Z,0.90
2022-11-17T03:27:24.684Z,1.10
2022-11-17T03:29:35.402Z,1.10
2022-11-17T03:31:47.563Z,1.00
2022-11-17T03:33:56.671Z,0.90
2022-11-17T03:36:08.998Z,0.90
2022-11-17T03:38:18.585Z,0.97
2022-11-17T03:40:27.866Z,1.03
2022-11-17T03:42:37.900Z,1.00
2022-11-17T03:44:51.718Z,1.00
2022-11-17T03:47:01.830Z,0.90
2022-11-17T03:49:15.783Z,0.97
2022-11-17T03:51:25.808Z,1.00
2022-11-17T03:53:35.767Z,1.37
2022-11-17T03:55:48.008Z,1.10
2022-11-17T03:57:59.174Z,1.10
2022-11-17T04:00:10.266Z,1.00
2022-11-17T04:02:19.007Z,1.00
2022-11-17T04:04:48.081Z,1.10
2022-11-17T04:06:56.759Z,1.10
2022-11-17T04:09:06.317Z,0.77
2022-11-17T04:11:32.347Z,1.00
2022-11-17T04:13:58.494Z,1.10
2022-11-17T04:16:08.745Z,0.90
2022-11-17T04:18:17.443Z,1.07
2022-11-17T04:20:25.970Z,0.90
2022-11-17T04:22:34.649Z,1.10
2022-11-17T04:24:43.159Z,0.87
2022-11-17T04:27:09.310Z,0.93
2022-11-17T04:29:17.674Z,1.17
2022-11-17T04:31:28.350Z,0.80
2022-11-17T04:33:37.491Z,1.13
2022-11-17T04:35:51.442Z,1.00
2022-11-17T04:37:59.961Z,1.03
2022-11-17T04:40:09.334Z,0.73
2022-11-17T04:42:16.819Z,1.10
2022-11-17T04:44:26.568Z,0.93
2022-11-17T04:46:37.709Z,0.97
2022-11-17T04:48:46.416Z,0.93
2022-11-17T04:50:55.824Z,0.90
2022-11-17T04:53:04.436Z,1.00
2022-11-17T04:55:12.876Z,1.00
2022-11-17T04:57:21.489Z,0.80
2022-11-17T04:59:30.050Z,0.90
2022-11-17T05:01:40.011Z,0.93
2022-11-17T05:03:49.683Z,0.73
2022-11-17T05:05:57.111Z,0.93
2022-11-17T05:08:05.990Z,0.70
2022-11-17T05:10:15.093Z,0.93
2022-11-17T05:12:41.336Z,0.60
2022-11-17T05:14:50.595Z,0.80
2022-11-17T05:17:09.398Z,0.80
2022-11-17T05:19:19.948Z,0.67
2022-11-17T05:21:29.400Z,0.80
2022-11-17T05:23:55.831Z,0.80
2022-11-17T05:26:04.259Z,0.73
2022-11-17T05:28:13.055Z,0.87
2022-11-17T05:30:21.598Z,0.73
2022-11-17T05:32:31.394Z,0.83
2022-11-17T05:34:39.797Z,1.00
2022-11-17T05:36:48.317Z,0.70
2022-11-17T05:38:56.939Z,0.60
2022-11-17T05:41:05.817Z,0.80
2022-11-17T05:43:14.446Z,0.70
2022-11-17T05:45:22.881Z,1.00
2022-11-17T05:47:32.959Z,0.90
2022-11-17T05:49:41.391Z,0.67
2022-11-17T05:51:52.697Z,0.70
2022-11-17T05:54:01.711Z,0.80
2022-11-17T05:56:18.720Z,0.80
2022-11-17T05:58:28.916Z,0.93
2022-11-17T06:00:38.322Z,0.70
2022-11-17T06:02:49.338Z,1.00
2022-11-17T06:04:57.773Z,1.00
2022-11-17T06:07:06.618Z,1.03
2022-11-17T06:09:15.171Z,0.70
2022-11-17T06:11:23.752Z,1.20
2022-11-17T06:13:32.273Z,4.27
2022-11-17T06:15:41.083Z,1.90
2022-11-17T06:17:52.346Z,2.93
2022-11-17T06:20:03.238Z,4.07
2022-11-17T06:22:13.294Z,1.90
2022-11-17T06:24:22.310Z,1.87
2022-11-17T06:26:30.775Z,1.07
2022-11-17T06:28:40.569Z,2.40
2022-11-17T06:30:49.177Z,2.07
2022-11-17T06:32:59.606Z,1.10
2022-11-17T06:35:09.561Z,0.80
2022-11-17T06:37:18.078Z,0.80
2022-11-17T06:39:26.784Z,0.60
2022-11-17T06:41:35.560Z,1.30
2022-11-17T06:43:44.200Z,1.00
2022-11-17T06:45:52.860Z,1.00
2022-11-17T06:48:03.735Z,0.80
2022-11-17T06:50:12.542Z,1.00
2022-11-17T06:52:21.007Z,0.80
2022-11-17T06:54:29.731Z,1.07
2022-11-17T06:56:38.331Z,0.77
2022-11-17T06:58:46.929Z,1.47
2022-11-17T07:00:55.682Z,1.10
2022-11-17T07:03:06.866Z,0.90
2022-11-17T07:05:15.402Z,0.93
2022-11-17T07:07:24.056Z,1.00
2022-11-17T07:09:32.664Z,0.97
2022-11-17T07:11:41.088Z,0.90
2022-11-17T07:13:49.688Z,0.80
2022-11-17T07:16:03.719Z,0.77
2022-11-17T07:18:13.765Z,0.90
2022-11-17T07:20:22.258Z,1.00
2022-11-17T07:22:30.722Z,0.83
2022-11-17T07:24:39.204Z,1.13
2022-11-17T07:26:47.708Z,0.93
2022-11-17T07:28:56.517Z,0.87
2022-11-17T07:31:06.107Z,0.83
2022-11-17T07:33:16.269Z,0.80
2022-11-17T07:35:24.952Z,0.80
2022-11-17T07:37:33.650Z,0.90
2022-11-17T07:39:42.187Z,1.00
2022-11-17T07:41:50.749Z,0.90
2022-11-17T07:43:59.967Z,0.60
2022-11-17T07:46:09.101Z,0.80
2022-11-17T07:48:19.056Z,0.70
2022-11-17T07:50:28.128Z,0.70
2022-11-17T07:52:41.288Z,0.60
2022-11-17T07:54:50.440Z,0.80
2022-11-17T07:56:58.991Z,0.83
2022-11-17T07:59:07.601Z,0.97
2022-11-17T08:01:16.856Z,0.70
2022-11-17T08:03:27.074Z,0.60
2022-11-17T08:05:42.923Z,0.70
2022-11-17T08:07:56.259Z,0.60
2022-11-17T08:10:05.446Z,0.67
2022-11-17T08:12:13.936Z,0.63
2022-11-17T08:14:22.403Z,0.73
2022-11-17T08:16:32.215Z,0.80
2022-11-17T08:18:45.955Z,0.90
2022-11-17T08:21:03.468Z,0.70
2022-11-17T08:23:11.941Z,0.67
2022-11-17T08:25:20.802Z,0.70
2022-11-17T08:27:29.312Z,0.80
2022-11-17T08:29:37.915Z,0.77
2022-11-17T08:31:47.937Z,0.80
2022-11-17T08:33:58.052Z,0.90
2022-11-17T08:36:07.463Z,1.07
2022-11-17T08:38:16.590Z,0.70
2022-11-17T08:40:26.541Z,0.70
2022-11-17T08:42:35.056Z,0.70
2022-11-17T08:44:43.609Z,0.87
2022-11-17T08:46:52.133Z,1.00
2022-11-17T08:49:03.110Z,0.70
2022-11-17T08:51:11.918Z,0.67
2022-11-17T08:53:22.205Z,0.60
2022-11-17T08:55:31.011Z,0.80
2022-11-17T08:57:39.916Z,0.80
2022-11-17T08:59:48.498Z,0.60
2022-11-17T09:01:56.960Z,0.50
2022-11-17T09:04:07.215Z,0.60
2022-11-17T09:06:16.737Z,0.70
2022-11-17T09:10:53.674Z,0.67
2022-11-17T09:13:02.227Z,0.77
2022-11-17T09:15:11.168Z,0.93
2022-11-17T09:17:19.621Z,0.90
2022-11-17T09:19:29.593Z,0.60
2022-11-17T09:21:38.150Z,0.50
2022-11-17T09:23:47.144Z,0.70
2022-11-17T09:25:55.688Z,0.70
2022-11-17T09:28:04.715Z,0.80
2022-11-17T09:30:13.994Z,0.70
2022-11-17T09:32:22.552Z,0.70
2022-11-17T09:34:32.845Z,0.60
2022-11-17T09:36:42.254Z,0.70
2022-11-17T09:38:51.081Z,0.70
2022-11-17T09:41:01.108Z,0.53
2022-11-17T09:43:10.790Z,0.60
2022-11-17T09:45:23.091Z,0.40
2022-11-17T09:47:40.355Z,0.70
2022-11-17T09:49:59.030Z,0.90
2022-11-17T09:52:12.358Z,0.60
2022-11-17T09:54:22.799Z,0.93
2022-11-17T09:56:32.456Z,1.00
2022-11-17T09:58:43.488Z,0.60
2022-11-17T10:00:53.080Z,0.50
2022-11-17T10:03:02.699Z,0.73
2022-11-17T10:05:16.511Z,0.90
2022-11-17T10:07:25.383Z,0.70
2022-11-17T10:09:38.774Z,0.87
2022-11-17T10:11:48.286Z,0.70
2022-11-17T10:13:56.757Z,0.90
2022-11-17T10:16:06.657Z,0.90
2022-11-17T10:18:15.683Z,0.87
2022-11-17T10:20:25.616Z,0.70
2022-11-17T10:22:35.798Z,1.00
2022-11-17T10:24:46.907Z,1.00
2022-11-17T10:26:55.617Z,0.80
2022-11-17T10:29:09.213Z,0.90
2022-11-17T10:31:18.654Z,0.80
2022-11-17T10:33:38.298Z,0.90
2022-11-17T10:35:55.227Z,0.97
2022-11-17T10:38:05.390Z,1.00
2022-11-17T10:40:24.962Z,1.20
2022-11-17T10:42:34.282Z,1.20
2022-11-17T10:44:43.501Z,1.10
2022-11-17T10:47:00.484Z,0.90
2022-11-17T10:49:24.646Z,1.17
2022-11-17T10:51:35.718Z,0.80
2022-11-17T10:53:46.871Z,0.90
2022-11-17T10:55:57.523Z,1.00
2022-11-17T10:58:11.127Z,1.00
2022-11-17T11:00:30.082Z,1.30
2022-11-17T11:02:39.305Z,0.90
2022-11-17T11:04:47.714Z,1.20
2022-11-17T11:07:09.707Z,1.20
2022-11-17T11:09:21.465Z,0.90
2022-11-17T11:11:36.205Z,0.90
2022-11-17T11:13:49.185Z,0.80
2022-11-17T11:15:57.675Z,0.80
2022-11-17T11:18:12.498Z,0.90
2022-11-17T11:20:23.189Z,0.70
2022-11-17T11:22:36.549Z,0.93
2022-11-17T11:24:47.119Z,1.00
2022-11-17T11:27:00.916Z,1.00
2022-11-17T11:29:14.555Z,0.83
2022-11-17T11:31:27.506Z,0.93
2022-11-17T11:33:38.954Z,0.90
2022-11-17T11:35:53.244Z,0.70
2022-11-17T11:38:09.858Z,0.70
2022-11-17T11:40:21.989Z,1.00
2022-11-17T11:42:43.029Z,0.70
2022-11-17T11:44:56.740Z,0.70
2022-11-17T11:47:08.945Z,0.70
2022-11-17T11:49:23.330Z,0.80
2022-11-17T11:51:36.749Z,0.60
2022-11-17T11:53:50.400Z,0.40
2022-11-17T11:56:06.803Z,0.47
2022-11-17T11:58:19.237Z,0.83
2022-11-17T12:00:27.998Z,0.77
2022-11-17T12:02:41.748Z,0.60
2022-11-17T12:04:57.134Z,0.90
2022-11-17T12:07:11.264Z,0.80
2022-11-17T12:09:33.737Z,0.87
2022-11-17T12:12:01.791Z,0.87
2022-11-17T12:14:17.254Z,0.80
2022-11-17T12:16:29.421Z,0.63
2022-11-17T12:18:37.895Z,0.80
2022-11-17T12:20:53.433Z,0.80
2022-11-17T12:23:08.662Z,0.90
2022-11-17T12:25:20.214Z,0.80
2022-11-17T12:27:44.706Z,1.00
2022-11-17T12:29:53.358Z,1.00
2022-11-17T12:32:02.643Z,1.10
2022-11-17T12:34:13.738Z,0.70
2022-11-17T12:36:31.631Z,0.80
2022-11-17T12:38:41.949Z,0.83
2022-11-17T12:40:52.455Z,0.90
2022-11-17T12:43:19.712Z,0.80
2022-11-17T12:45:28.710Z,1.03
2022-11-17T12:47:38.032Z,0.73
2022-11-17T12:49:50.423Z,0.80
2022-11-17T12:52:03.135Z,0.70
2022-11-17T12:54:20.881Z,0.70
2022-11-17T12:56:37.366Z,1.07
2022-11-17T12:58:50.741Z,1.10
2022-11-17T13:01:05.799Z,1.20
2022-11-17T13:03:17.316Z,1.63
2022-11-17T13:05:26.933Z,1.57
2022-11-17T13:07:35.526Z,1.67
2022-11-17T13:09:44.064Z,1.43
2022-11-17T13:12:01.679Z,1.87
2022-11-17T13:14:11.391Z,1.70
2022-11-17T13:16:21.049Z,1.80
2022-11-17T13:18:33.328Z,2.00
2022-11-17T13:20:41.809Z,2.23
2022-11-17T13:23:00.352Z,2.40
2022-11-17T13:25:21.127Z,2.37
2022-11-17T13:27:32.361Z,2.50
2022-11-17T13:29:41.069Z,2.47
2022-11-17T13:31:49.533Z,2.60
2022-11-17T13:34:01.479Z,2.60
2022-11-17T13:36:17.268Z,2.77
2022-11-17T13:38:26.279Z,2.70
2022-11-17T13:40:35.727Z,2.20
2022-11-17T13:42:45.936Z,2.60
2022-11-17T13:44:55.783Z,2.40
2022-11-17T13:47:20.640Z,2.47
2022-11-17T13:49:34.395Z,2.03
2022-11-17T13:51:45.158Z,2.23
2022-11-17T13:53:55.307Z,2.00
2022-11-17T13:56:03.968Z,1.97
2022-11-17T13:58:26.539Z,1.53
2022-11-17T14:00:35.960Z,2.20
2022-11-17T14:02:53.444Z,1.87
2022-11-17T14:05:06.606Z,1.57
2022-11-17T14:07:31.182Z,1.57
2022-11-17T14:09:39.725Z,1.30
2022-11-17T14:11:48.180Z,1.30
2022-11-17T14:14:01.337Z,1.50
2022-11-17T14:16:19.077Z,1.30
2022-11-17T14:18:32.096Z,1.20
2022-11-17T14:20:40.511Z,0.90
2022-11-17T14:23:02.172Z,0.80
2022-11-17T14:25:11.447Z,0.90
2022-11-17T14:27:35.074Z,1.00
2022-11-17T14:29:45.135Z,0.90
2022-11-17T14:31:53.890Z,0.80
2022-11-17T14:34:02.599Z,0.90
2022-11-17T14:36:12.076Z,0.90
2022-11-17T14:38:22.092Z,0.80
2022-11-17T14:40:30.652Z,0.80
2022-11-17T14:42:41.367Z,0.80
2022-11-17T14:44:51.409Z,0.87
2022-11-17T14:46:59.985Z,0.80
2022-11-17T14:49:08.810Z,0.90
2022-11-17T14:51:17.496Z,0.97
2022-11-17T14:53:26.543Z,0.87
2022-11-17T14:55:35.307Z,0.90
2022-11-17T14:57:43.788Z,0.80
2022-11-17T14:59:53.895Z,0.80
2022-11-17T15:02:02.357Z,0.80
2022-11-17T15:04:48.248Z,0.60
2022-11-17T15:06:44.063Z,0.70
2022-11-17T15:08:55.535Z,0.80
2022-11-17T15:11:04.195Z,0.77
2022-11-17T15:13:12.689Z,0.80
2022-11-17T15:15:22.520Z,0.83
2022-11-17T15:17:30.959Z,0.70
2022-11-17T15:19:39.530Z,0.90
2022-11-17T15:21:48.211Z,1.20
2022-11-17T15:23:56.724Z,0.63
2022-11-17T15:26:05.798Z,0.60
2022-11-17T15:28:20.511Z,0.63
2022-11-17T15:30:32.534Z,0.40
2022-11-17T15:32:40.973Z,1.07
2022-11-17T15:34:49.450Z,0.70
2022-11-17T15:36:58.006Z,0.80
2022-11-17T15:39:06.851Z,0.90
2022-11-17T15:41:15.710Z,0.70
2022-11-17T15:43:28.094Z,0.63
2022-11-17T15:45:38.176Z,0.60
2022-11-17T15:47:46.630Z,0.70
2022-11-17T15:49:58.736Z,0.70
2022-11-17T15:52:07.371Z,0.90
2022-11-17T15:54:20.432Z,0.90
2022-11-17T15:56:30.079Z,0.93
2022-11-17T15:58:38.636Z,0.80
2022-11-17T16:00:48.692Z,0.70
2022-11-17T16:02:58.788Z,0.60
2022-11-17T16:05:08.068Z,0.70
2022-11-17T16:07:16.652Z,0.50
2022-11-17T16:09:25.360Z,0.70
2022-11-17T16:11:33.986Z,0.67
2022-11-17T16:13:42.538Z,0.60
2022-11-17T16:15:52.660Z,0.70
2022-11-17T16:18:01.532Z,0.50
2022-11-17T16:20:10.952Z,0.87
2022-11-17T16:22:19.690Z,0.80
2022-11-17T16:24:28.311Z,0.80
2022-11-17T16:26:37.905Z,1.17
2022-11-17T16:28:47.310Z,1.00
2022-11-17T16:30:57.304Z,1.00
2022-11-17T16:33:10.683Z,1.00
2022-11-17T16:35:19.339Z,0.90
2022-11-17T16:37:27.837Z,0.90
2022-11-17T16:39:36.712Z,0.90
2022-11-17T16:41:46.550Z,0.87
2022-11-17T16:43:55.344Z,0.90
2022-11-17T16:46:16.247Z,1.00
2022-11-17T16:48:24.679Z,1.07
2022-11-17T16:50:33.161Z,1.80
2022-11-17T16:52:41.688Z,1.60
2022-11-17T16:54:50.363Z,5.10
2022-11-17T16:56:59.035Z,2.70
2022-11-17T16:59:07.537Z,1.73
2022-11-17T17:01:18.540Z,1.30
2022-11-17T17:03:27.336Z,1.27
2022-11-17T17:05:40.436Z,2.30
2022-11-17T17:07:49.107Z,0.80
2022-11-17T17:09:57.852Z,1.20
2022-11-17T17:12:06.611Z,1.50
2022-11-17T17:14:16.004Z,1.10
2022-11-17T17:16:26.222Z,1.27
2022-11-17T17:18:34.776Z,1.40
2022-11-17T17:20:51.101Z,1.10
2022-11-17T17:23:03.016Z,1.50
2022-11-17T17:25:12.183Z,0.97
2022-11-17T17:27:20.661Z,1.30
2022-11-17T17:29:29.172Z,1.30
2022-11-17T17:31:39.526Z,0.97
2022-11-17T17:33:50.143Z,0.83
2022-11-17T17:36:02.871Z,1.03
2022-11-17T17:38:11.370Z,0.90
2022-11-17T17:40:19.873Z,0.80
2022-11-17T17:42:28.542Z,1.30
2022-11-17T17:44:37.258Z,1.30
2022-11-17T17:46:48.456Z,1.00
2022-11-17T17:48:57.398Z,1.20
2022-11-17T17:51:06.495Z,1.33
2022-11-17T17:53:14.928Z,1.10
2022-11-17T17:55:23.409Z,1.37
2022-11-17T17:57:34.044Z,1.17
2022-11-17T17:59:42.710Z,1.10
2022-11-17T18:01:53.389Z,1.13
2022-11-17T18:04:05.314Z,1.00
2022-11-17T18:06:14.376Z,1.10
2022-11-17T18:08:22.850Z,1.00
2022-11-17T18:10:31.306Z,0.70
2022-11-17T18:12:39.788Z,0.90
2022-11-17T18:14:48.398Z,1.03
2022-11-17T18:16:58.733Z,1.00
2022-11-17T18:19:08.594Z,1.00
2022-11-17T18:21:18.821Z,0.90
2022-11-17T18:23:28.981Z,1.10
2022-11-17T18:25:37.425Z,1.00
2022-11-17T18:27:45.909Z,1.20
2022-11-17T18:29:54.547Z,0.90
2022-11-17T18:32:04.672Z,0.80
2022-11-17T18:34:15.882Z,0.80
2022-11-17T18:36:24.901Z,0.90
2022-11-17T18:38:34.139Z,0.90
2022-11-17T18:40:42.560Z,0.70
2022-11-17T18:42:51.113Z,1.00
2022-11-17T18:44:59.559Z,1.10
2022-11-17T18:47:09.359Z,0.97
2022-11-17T18:49:18.306Z,1.10
2022-11-17T18:51:28.263Z,1.07
2022-11-17T18:53:36.767Z,1.00
2022-11-17T18:55:45.198Z,2.27
2022-11-17T18:57:53.659Z,1.77
2022-11-17T19:00:02.350Z,1.50
2022-11-17T19:02:12.412Z,1.90
2022-11-17T19:04:21.157Z,2.10
2022-11-17T19:06:29.607Z,4.37
2022-11-17T19:08:38.443Z,5.93
2022-11-17T19:10:53.243Z,3.77
2022-11-17T19:13:01.776Z,5.10
2022-11-17T19:15:10.300Z,4.20
2022-11-17T19:17:20.167Z,7.20
2022-11-17T19:19:28.596Z,7.53
2022-11-17T19:21:37.171Z,7.10
2022-11-17T19:23:50.997Z,3.10
2022-11-17T19:26:00.510Z,1.53
2022-11-17T19:28:09.677Z,1.90
2022-11-17T19:30:18.159Z,1.50
2022-11-17T19:32:30.221Z,1.60
2022-11-17T19:34:39.246Z,1.37
2022-11-17T19:36:47.721Z,1.10
2022-11-17T19:38:56.989Z,1.07
2022-11-17T19:41:06.033Z,1.10
2022-11-17T19:43:17.833Z,1.20
2022-11-17T19:45:26.284Z,2.30
2022-11-17T19:47:36.107Z,3.23
2022-11-17T19:49:44.522Z,4.80
2022-11-17T19:51:52.945Z,4.60
2022-11-17T19:54:03.181Z,2.87
2022-11-17T19:56:11.645Z,2.30
2022-11-17T19:58:20.758Z,3.00
2022-11-17T20:00:29.476Z,2.83
2022-11-17T20:02:40.121Z,1.50
2022-11-17T20:04:48.558Z,1.57
2022-11-17T20:06:57.373Z,1.87
2022-11-17T20:09:09.245Z,1.77
2022-11-17T20:11:18.868Z,1.70
2022-11-17T20:13:27.370Z,2.23
2022-11-17T20:15:36.491Z,2.20
2022-11-17T20:17:46.446Z,1.63
2022-11-17T20:19:55.047Z,1.70
2022-11-17T20:22:03.483Z,1.37
2022-11-17T20:24:12.061Z,1.43
2022-11-17T20:26:21.753Z,1.60
2022-11-17T20:28:32.906Z,1.60
2022-11-17T20:30:41.889Z,1.70
2022-11-17T20:32:51.978Z,1.43
2022-11-17T20:35:00.650Z,1.70
2022-11-17T20:37:09.296Z,1.73
2022-11-17T20:39:18.125Z,1.73
2022-11-17T20:41:26.891Z,1.57
2022-11-17T20:43:39.043Z,1.73
2022-11-17T20:45:47.510Z,1.57
2022-11-17T20:47:57.506Z,1.40
2022-11-17T20:50:06.480Z,1.40
2022-11-17T20:52:15.640Z,1.60
2022-11-17T20:54:24.150Z,1.67
2022-11-17T20:56:32.882Z,1.47
2022-11-17T20:58:41.505Z,1.60
2022-11-17T21:00:50.327Z,1.53
2022-11-17T21:03:00.458Z,1.30
2022-11-17T21:05:10.741Z,1.63
2022-11-17T21:07:19.577Z,1.40
2022-11-17T21:09:28.285Z,1.53
2022-11-17T21:11:54.245Z,1.70
2022-11-17T21:14:02.789Z,1.60
2022-11-17T21:16:12.997Z,1.90
2022-11-17T21:18:25.877Z,2.00
2022-11-17T21:20:34.764Z,1.60
2022-11-17T21:22:43.217Z,1.53
2022-11-17T21:24:51.885Z,1.90
2022-11-17T21:27:00.426Z,1.40
2022-11-17T21:29:09.080Z,1.90
2022-11-17T21:31:18.909Z,2.00
2022-11-17T21:33:28.722Z,1.67
2022-11-17T21:35:37.420Z,2.03
2022-11-17T21:37:45.976Z,1.70
2022-11-17T21:39:54.608Z,1.93
2022-11-17T21:42:03.174Z,1.77
2022-11-17T21:44:13.312Z,1.87
2022-11-17T21:46:22.720Z,1.93
2022-11-17T21:48:37.775Z,1.60
2022-11-17T21:50:46.683Z,2.27
2022-11-17T21:52:55.385Z,1.73
2022-11-17T21:55:03.936Z,2.10
2022-11-17T21:57:12.384Z,1.93
2022-11-17T21:59:21.013Z,1.70
2022-11-17T22:01:30.056Z,1.90
2022-11-17T22:03:40.488Z,2.33
2022-11-17T22:05:52.041Z,1.87
2022-11-17T22:08:00.747Z,2.00
2022-11-17T22:10:09.839Z,2.13
2022-11-17T22:12:18.299Z,2.40
2022-11-17T22:14:26.852Z,2.40
2022-11-17T22:16:36.280Z,2.17
2022-11-17T22:18:46.076Z,2.33
2022-11-17T22:20:54.716Z,2.30
2022-11-17T22:23:03.176Z,2.00
2022-11-17T22:25:43.006Z,2.27
2022-11-17T22:27:40.150Z,1.70
2022-11-17T22:29:48.669Z,2.40
2022-11-17T22:31:57.180Z,2.03
2022-11-17T22:34:07.010Z,2.13
2022-11-17T22:36:15.591Z,2.40
2022-11-17T22:38:24.210Z,2.33
2022-11-17T22:40:32.744Z,2.47
2022-11-17T22:42:41.209Z,2.10
2022-11-17T22:44:49.886Z,2.13
2022-11-17T22:46:58.312Z,2.20
2022-11-17T22:49:08.498Z,2.40
2022-11-17T22:51:38.609Z,1.80
2022-11-17T22:53:47.098Z,1.90
2022-11-17T22:55:55.757Z,1.93
2022-11-17T22:58:04.318Z,2.23
2022-11-17T23:00:14.060Z,2.23
2022-11-17T23:02:22.490Z,2.03
2022-11-17T23:04:32.672Z,2.30
2022-11-17T23:06:41.253Z,2.10
2022-11-17T23:08:49.731Z,2.30
2022-11-17T23:11:29.637Z,1.93
2022-11-17T23:13:30.524Z,2.00
2022-11-17T23:15:39.985Z,1.60
2022-11-17T23:17:48.478Z,1.90
2022-11-17T23:19:58.441Z,2.20
2022-11-17T23:22:06.914Z,1.53
2022-11-17T23:24:15.442Z,1.60
2022-11-17T23:26:24.052Z,2.07
2022-11-17T23:28:32.610Z,2.00
2022-11-17T23:30:41.175Z,2.30
2022-11-17T23:32:50.052Z,1.93
2022-11-17T23:35:00.299Z,1.73
2022-11-17T23:37:08.847Z,2.30
2022-11-17T23:39:17.504Z,2.20
2022-11-17T23:41:26.369Z,2.10
2022-11-17T23:43:35.015Z,2.10
2022-11-17T23:45:43.466Z,1.80
2022-11-17T23:47:51.949Z,1.93
2022-11-17T23:50:02.038Z,2.10
2022-11-17T23:52:10.723Z,2.23
2022-11-17T23:54:19.243Z,2.63
2022-11-17T23:56:28.110Z,1.57
2022-11-17T23:58:36.716Z,1.87
